sensor_id;sensor_type;location;lat;lon;timestamp;P1;durP1;ratioP1;P2;durP2;ratioP2
41635;SDS011;27623;51.966;4.602;2024-02-28T00:02:17;2.03;;;1.20;;
41635;SDS011;27623;51.966;4.602;2024-02-28T00:04:43;2.17;;;1.23;;
41635;SDS011;27623;51.966;4.602;2024-02-28T00:07:09;1.38;;;1.08;;
41635;SDS011;27623;51.966;4.602;2024-02-28T00:09:34;1.95;;;1.25;;
41635;SDS011;27623;51.966;4.602;2024-02-28T00:12:00;2.03;;;1.20;;
41635;SDS011;27623;51.966;4.602;2024-02-28T00:14:25;1.98;;;1.02;;
41635;SDS011;27623;51.966;4.602;2024-02-28T00:16:53;1.75;;;0.68;;
41635;SDS011;27623;51.966;4.602;2024-02-28T00:19:18;1.67;;;1.23;;
41635;SDS011;27623;51.966;4.602;2024-02-28T00:21:45;3.95;;;1.42;;
41635;SDS011;27623;51.966;4.602;2024-02-28T00:24:11;3.75;;;0.90;;
41635;SDS011;27623;51.966;4.602;2024-02-28T00:26:37;2.53;;;1.17;;
41635;SDS011;27623;51.966;4.602;2024-02-28T00:29:05;2.67;;;1.13;;
41635;SDS011;27623;51.966;4.602;2024-02-28T00:31:30;1.90;;;0.85;;
41635;SDS011;27623;51.966;4.602;2024-02-28T00:33:56;1.90;;;1.15;;
41635;SDS011;27623;51.966;4.602;2024-02-28T00:36:21;3.05;;;0.77;;
41635;SDS011;27623;51.966;4.602;2024-02-28T00:38:47;4.95;;;0.85;;
41635;SDS011;27623;51.966;4.602;2024-02-28T00:41:12;1.17;;;0.80;;
41635;SDS011;27623;51.966;4.602;2024-02-28T00:43:37;1.40;;;1.00;;
41635;SDS011;27623;51.966;4.602;2024-02-28T00:46:03;1.55;;;0.85;;
41635;SDS011;27623;51.966;4.602;2024-02-28T00:48:28;2.03;;;0.90;;
41635;SDS011;27623;51.966;4.602;2024-02-28T00:50:54;2.38;;;1.00;;
41635;SDS011;27623;51.966;4.602;2024-02-28T00:53:19;1.67;;;1.05;;
41635;SDS011;27623;51.966;4.602;2024-02-28T00:55:45;2.45;;;1.52;;
41635;SDS011;27623;51.966;4.602;2024-02-28T00:58:10;3.40;;;1.48;;
41635;SDS011;27623;51.966;4.602;2024-02-28T01:00:36;3.35;;;1.20;;
41635;SDS011;27623;51.966;4.602;2024-02-28T01:03:01;2.58;;;1.20;;
41635;SDS011;27623;51.966;4.602;2024-02-28T01:05:30;1.63;;;1.00;;
41635;SDS011;27623;51.966;4.602;2024-02-28T01:07:55;1.58;;;0.88;;
41635;SDS011;27623;51.966;4.602;2024-02-28T01:10:21;1.42;;;0.85;;
41635;SDS011;27623;51.966;4.602;2024-02-28T01:12:47;1.60;;;0.85;;
41635;SDS011;27623;51.966;4.602;2024-02-28T01:15:12;2.38;;;1.48;;
41635;SDS011;27623;51.966;4.602;2024-02-28T01:17:38;8.93;;;1.33;;
41635;SDS011;27623;51.966;4.602;2024-02-28T01:20:04;3.75;;;1.30;;
41635;SDS011;27623;51.966;4.602;2024-02-28T01:22:32;1.80;;;1.15;;
41635;SDS011;27623;51.966;4.602;2024-02-28T01:24:57;6.65;;;1.38;;
41635;SDS011;27623;51.966;4.602;2024-02-28T01:27:23;1.60;;;0.88;;
41635;SDS011;27623;51.966;4.602;2024-02-28T01:29:48;1.98;;;1.00;;
41635;SDS011;27623;51.966;4.602;2024-02-28T01:32:13;1.58;;;0.80;;
41635;SDS011;27623;51.966;4.602;2024-02-28T01:34:39;2.17;;;1.00;;
41635;SDS011;27623;51.966;4.602;2024-02-28T01:37:04;1.88;;;1.10;;
41635;SDS011;27623;51.966;4.602;2024-02-28T01:39:29;4.10;;;1.35;;
41635;SDS011;27623;51.966;4.602;2024-02-28T01:41:55;2.38;;;1.20;;
41635;SDS011;27623;51.966;4.602;2024-02-28T01:44:22;8.27;;;1.33;;
41635;SDS011;27623;51.966;4.602;2024-02-28T01:46:47;2.63;;;1.45;;
41635;SDS011;27623;51.966;4.602;2024-02-28T01:49:16;1.02;;;0.85;;
41635;SDS011;27623;51.966;4.602;2024-02-28T01:51:44;1.90;;;1.17;;
41635;SDS011;27623;51.966;4.602;2024-02-28T01:54:16;5.07;;;1.00;;
41635;SDS011;27623;51.966;4.602;2024-02-28T01:56:43;1.67;;;1.10;;
41635;SDS011;27623;51.966;4.602;2024-02-28T01:59:09;3.05;;;1.33;;
41635;SDS011;27623;51.966;4.602;2024-02-28T02:01:36;5.18;;;1.63;;
41635;SDS011;27623;51.966;4.602;2024-02-28T02:04:02;3.97;;;2.33;;
41635;SDS011;27623;51.966;4.602;2024-02-28T02:06:29;3.00;;;1.38;;
41635;SDS011;27623;51.966;4.602;2024-02-28T02:08:55;2.70;;;1.40;;
41635;SDS011;27623;51.966;4.602;2024-02-28T02:11:23;2.38;;;1.42;;
41635;SDS011;27623;51.966;4.602;2024-02-28T02:13:49;2.58;;;1.45;;
41635;SDS011;27623;51.966;4.602;2024-02-28T02:16:18;3.80;;;1.48;;
41635;SDS011;27623;51.966;4.602;2024-02-28T02:18:47;3.05;;;1.75;;
41635;SDS011;27623;51.966;4.602;2024-02-28T02:21:17;3.75;;;1.50;;
41635;SDS011;27623;51.966;4.602;2024-02-28T02:23:43;7.25;;;1.58;;
41635;SDS011;27623;51.966;4.602;2024-02-28T02:26:11;1.98;;;1.20;;
41635;SDS011;27623;51.966;4.602;2024-02-28T02:28:36;2.33;;;1.17;;
41635;SDS011;27623;51.966;4.602;2024-02-28T02:31:02;4.38;;;1.63;;
41635;SDS011;27623;51.966;4.602;2024-02-28T02:33:27;2.50;;;1.63;;
41635;SDS011;27623;51.966;4.602;2024-02-28T02:35:53;3.28;;;1.30;;
41635;SDS011;27623;51.966;4.602;2024-02-28T02:38:19;4.25;;;2.15;;
41635;SDS011;27623;51.966;4.602;2024-02-28T02:40:48;2.08;;;1.13;;
41635;SDS011;27623;51.966;4.602;2024-02-28T02:43:16;4.63;;;1.23;;
41635;SDS011;27623;51.966;4.602;2024-02-28T02:45:42;2.10;;;1.33;;
41635;SDS011;27623;51.966;4.602;2024-02-28T02:48:08;4.35;;;1.42;;
41635;SDS011;27623;51.966;4.602;2024-02-28T02:50:34;3.20;;;1.33;;
41635;SDS011;27623;51.966;4.602;2024-02-28T02:52:59;3.72;;;1.75;;
41635;SDS011;27623;51.966;4.602;2024-02-28T02:55:24;3.70;;;1.52;;
41635;SDS011;27623;51.966;4.602;2024-02-28T02:57:50;3.35;;;1.58;;
41635;SDS011;27623;51.966;4.602;2024-02-28T03:00:15;2.65;;;1.55;;
41635;SDS011;27623;51.966;4.602;2024-02-28T03:02:43;2.85;;;1.38;;
41635;SDS011;27623;51.966;4.602;2024-02-28T03:05:10;2.58;;;1.48;;
41635;SDS011;27623;51.966;4.602;2024-02-28T03:07:36;6.85;;;1.58;;
41635;SDS011;27623;51.966;4.602;2024-02-28T03:10:01;2.63;;;1.30;;
41635;SDS011;27623;51.966;4.602;2024-02-28T03:12:28;2.88;;;1.67;;
41635;SDS011;27623;51.966;4.602;2024-02-28T03:14:53;7.00;;;2.47;;
41635;SDS011;27623;51.966;4.602;2024-02-28T03:17:18;5.03;;;1.73;;
41635;SDS011;27623;51.966;4.602;2024-02-28T03:19:44;4.90;;;1.70;;
41635;SDS011;27623;51.966;4.602;2024-02-28T03:22:09;3.85;;;1.85;;
41635;SDS011;27623;51.966;4.602;2024-02-28T03:24:34;4.57;;;1.92;;
41635;SDS011;27623;51.966;4.602;2024-02-28T03:27:01;6.28;;;2.03;;
41635;SDS011;27623;51.966;4.602;2024-02-28T03:29:27;3.58;;;2.20;;
41635;SDS011;27623;51.966;4.602;2024-02-28T03:31:52;2.75;;;1.65;;
41635;SDS011;27623;51.966;4.602;2024-02-28T03:34:17;2.78;;;1.50;;
41635;SDS011;27623;51.966;4.602;2024-02-28T03:36:43;3.88;;;1.88;;
41635;SDS011;27623;51.966;4.602;2024-02-28T03:39:08;7.20;;;2.58;;
41635;SDS011;27623;51.966;4.602;2024-02-28T03:41:34;5.35;;;2.67;;
41635;SDS011;27623;51.966;4.602;2024-02-28T03:44:00;4.40;;;2.03;;
41635;SDS011;27623;51.966;4.602;2024-02-28T03:46:25;4.95;;;2.33;;
41635;SDS011;27623;51.966;4.602;2024-02-28T03:48:50;7.28;;;2.25;;
41635;SDS011;27623;51.966;4.602;2024-02-28T03:51:16;3.38;;;2.03;;
41635;SDS011;27623;51.966;4.602;2024-02-28T03:53:41;5.70;;;2.28;;
41635;SDS011;27623;51.966;4.602;2024-02-28T03:56:06;6.82;;;2.15;;
41635;SDS011;27623;51.966;4.602;2024-02-28T03:58:32;3.30;;;2.00;;
41635;SDS011;27623;51.966;4.602;2024-02-28T04:00:57;5.63;;;2.53;;
41635;SDS011;27623;51.966;4.602;2024-02-28T04:03:23;3.58;;;1.80;;
41635;SDS011;27623;51.966;4.602;2024-02-28T04:05:48;7.63;;;3.10;;
41635;SDS011;27623;51.966;4.602;2024-02-28T04:08:13;4.50;;;2.42;;
41635;SDS011;27623;51.966;4.602;2024-02-28T04:10:39;7.75;;;3.38;;
41635;SDS011;27623;51.966;4.602;2024-02-28T04:13:04;3.42;;;1.73;;
41635;SDS011;27623;51.966;4.602;2024-02-28T04:15:30;5.57;;;2.17;;
41635;SDS011;27623;51.966;4.602;2024-02-28T04:17:56;4.78;;;1.92;;
41635;SDS011;27623;51.966;4.602;2024-02-28T04:20:21;7.00;;;2.50;;
41635;SDS011;27623;51.966;4.602;2024-02-28T04:22:46;5.32;;;3.17;;
41635;SDS011;27623;51.966;4.602;2024-02-28T04:25:12;6.05;;;2.92;;
41635;SDS011;27623;51.966;4.602;2024-02-28T04:27:37;4.32;;;2.30;;
41635;SDS011;27623;51.966;4.602;2024-02-28T04:30:05;4.07;;;2.08;;
41635;SDS011;27623;51.966;4.602;2024-02-28T04:32:31;7.03;;;1.83;;
41635;SDS011;27623;51.966;4.602;2024-02-28T04:34:58;6.75;;;2.50;;
41635;SDS011;27623;51.966;4.602;2024-02-28T04:37:24;6.03;;;3.22;;
41635;SDS011;27623;51.966;4.602;2024-02-28T04:39:51;7.40;;;3.13;;
41635;SDS011;27623;51.966;4.602;2024-02-28T04:42:17;7.63;;;3.10;;
41635;SDS011;27623;51.966;4.602;2024-02-28T04:44:42;12.02;;;2.50;;
41635;SDS011;27623;51.966;4.602;2024-02-28T04:47:12;6.60;;;2.92;;
41635;SDS011;27623;51.966;4.602;2024-02-28T04:49:38;7.43;;;2.42;;
41635;SDS011;27623;51.966;4.602;2024-02-28T04:52:06;6.03;;;3.08;;
41635;SDS011;27623;51.966;4.602;2024-02-28T04:54:31;5.20;;;2.53;;
41635;SDS011;27623;51.966;4.602;2024-02-28T04:56:57;6.68;;;2.70;;
41635;SDS011;27623;51.966;4.602;2024-02-28T04:59:22;6.72;;;2.58;;
41635;SDS011;27623;51.966;4.602;2024-02-28T05:01:48;7.18;;;2.65;;
41635;SDS011;27623;51.966;4.602;2024-02-28T05:04:16;6.70;;;2.80;;
41635;SDS011;27623;51.966;4.602;2024-02-28T05:06:44;10.85;;;3.28;;
41635;SDS011;27623;51.966;4.602;2024-02-28T05:09:09;8.73;;;3.42;;
41635;SDS011;27623;51.966;4.602;2024-02-28T05:11:35;4.85;;;2.88;;
41635;SDS011;27623;51.966;4.602;2024-02-28T05:14:00;7.53;;;3.47;;
41635;SDS011;27623;51.966;4.602;2024-02-28T05:16:25;9.32;;;4.32;;
41635;SDS011;27623;51.966;4.602;2024-02-28T05:18:51;5.65;;;2.80;;
41635;SDS011;27623;51.966;4.602;2024-02-28T05:21:16;8.60;;;4.15;;
41635;SDS011;27623;51.966;4.602;2024-02-28T05:23:42;5.65;;;3.10;;
41635;SDS011;27623;51.966;4.602;2024-02-28T05:26:09;7.68;;;3.25;;
41635;SDS011;27623;51.966;4.602;2024-02-28T05:28:35;10.13;;;3.05;;
41635;SDS011;27623;51.966;4.602;2024-02-28T05:31:04;5.80;;;2.70;;
41635;SDS011;27623;51.966;4.602;2024-02-28T05:33:52;4.47;;;2.90;;
41635;SDS011;27623;51.966;4.602;2024-02-28T05:36:24;7.43;;;3.15;;
41635;SDS011;27623;51.966;4.602;2024-02-28T05:38:53;6.38;;;3.78;;
41635;SDS011;27623;51.966;4.602;2024-02-28T05:41:20;7.15;;;3.08;;
41635;SDS011;27623;51.966;4.602;2024-02-28T05:43:46;7.20;;;4.32;;
41635;SDS011;27623;51.966;4.602;2024-02-28T05:46:13;10.70;;;3.20;;
41635;SDS011;27623;51.966;4.602;2024-02-28T05:48:45;10.85;;;3.42;;
41635;SDS011;27623;51.966;4.602;2024-02-28T05:51:13;7.13;;;3.20;;
41635;SDS011;27623;51.966;4.602;2024-02-28T05:53:38;5.65;;;3.17;;
41635;SDS011;27623;51.966;4.602;2024-02-28T05:56:04;5.45;;;3.28;;
41635;SDS011;27623;51.966;4.602;2024-02-28T05:58:38;6.45;;;3.60;;
41635;SDS011;27623;51.966;4.602;2024-02-28T06:01:03;10.18;;;3.97;;
41635;SDS011;27623;51.966;4.602;2024-02-28T06:03:29;7.80;;;3.58;;
41635;SDS011;27623;51.966;4.602;2024-02-28T06:05:54;6.97;;;3.22;;
41635;SDS011;27623;51.966;4.602;2024-02-28T06:08:22;5.43;;;3.58;;
41635;SDS011;27623;51.966;4.602;2024-02-28T06:10:48;5.32;;;3.13;;
41635;SDS011;27623;51.966;4.602;2024-02-28T06:13:13;13.48;;;3.75;;
41635;SDS011;27623;51.966;4.602;2024-02-28T06:15:38;7.50;;;3.55;;
41635;SDS011;27623;51.966;4.602;2024-02-28T06:18:04;17.52;;;4.65;;
41635;SDS011;27623;51.966;4.602;2024-02-28T06:20:29;8.98;;;3.35;;
41635;SDS011;27623;51.966;4.602;2024-02-28T06:22:55;7.40;;;3.85;;
41635;SDS011;27623;51.966;4.602;2024-02-28T06:25:20;12.00;;;3.03;;
41635;SDS011;27623;51.966;4.602;2024-02-28T06:27:49;8.15;;;3.83;;
41635;SDS011;27623;51.966;4.602;2024-02-28T06:30:15;6.80;;;2.55;;
41635;SDS011;27623;51.966;4.602;2024-02-28T06:32:42;15.90;;;4.50;;
41635;SDS011;27623;51.966;4.602;2024-02-28T06:35:07;7.47;;;3.85;;
41635;SDS011;27623;51.966;4.602;2024-02-28T06:37:33;4.72;;;3.05;;
41635;SDS011;27623;51.966;4.602;2024-02-28T06:39:59;7.30;;;3.10;;
41635;SDS011;27623;51.966;4.602;2024-02-28T06:42:25;6.15;;;3.15;;
41635;SDS011;27623;51.966;4.602;2024-02-28T06:44:50;6.68;;;4.15;;
41635;SDS011;27623;51.966;4.602;2024-02-28T06:47:16;7.30;;;3.17;;
41635;SDS011;27623;51.966;4.602;2024-02-28T06:49:41;5.40;;;3.58;;
41635;SDS011;27623;51.966;4.602;2024-02-28T06:52:07;5.05;;;3.40;;
41635;SDS011;27623;51.966;4.602;2024-02-28T06:54:32;4.28;;;3.60;;
41635;SDS011;27623;51.966;4.602;2024-02-28T06:56:57;7.38;;;4.57;;
41635;SDS011;27623;51.966;4.602;2024-02-28T06:59:23;7.60;;;3.70;;
41635;SDS011;27623;51.966;4.602;2024-02-28T07:01:48;11.32;;;3.22;;
41635;SDS011;27623;51.966;4.602;2024-02-28T07:04:14;5.60;;;3.50;;
41635;SDS011;27623;51.966;4.602;2024-02-28T07:06:42;6.95;;;2.97;;
41635;SDS011;27623;51.966;4.602;2024-02-28T07:09:07;6.90;;;3.28;;
41635;SDS011;27623;51.966;4.602;2024-02-28T07:11:37;6.03;;;2.97;;
41635;SDS011;27623;51.966;4.602;2024-02-28T07:14:04;8.45;;;3.50;;
41635;SDS011;27623;51.966;4.602;2024-02-28T07:16:30;6.10;;;3.90;;
41635;SDS011;27623;51.966;4.602;2024-02-28T07:18:57;10.40;;;4.93;;
41635;SDS011;27623;51.966;4.602;2024-02-28T07:21:23;8.57;;;3.08;;
41635;SDS011;27623;51.966;4.602;2024-02-28T07:23:51;9.90;;;5.28;;
41635;SDS011;27623;51.966;4.602;2024-02-28T07:26:16;7.55;;;4.28;;
41635;SDS011;27623;51.966;4.602;2024-02-28T07:28:42;7.75;;;3.17;;
41635;SDS011;27623;51.966;4.602;2024-02-28T07:31:14;8.60;;;3.90;;
41635;SDS011;27623;51.966;4.602;2024-02-28T07:33:45;7.32;;;4.18;;
41635;SDS011;27623;51.966;4.602;2024-02-28T07:36:10;6.55;;;3.95;;
41635;SDS011;27623;51.966;4.602;2024-02-28T07:38:41;7.50;;;3.05;;
41635;SDS011;27623;51.966;4.602;2024-02-28T07:41:07;9.23;;;3.75;;
41635;SDS011;27623;51.966;4.602;2024-02-28T07:43:34;5.25;;;3.90;;
41635;SDS011;27623;51.966;4.602;2024-02-28T07:46:11;13.07;;;4.10;;
41635;SDS011;27623;51.966;4.602;2024-02-28T07:48:37;5.63;;;3.97;;
41635;SDS011;27623;51.966;4.602;2024-02-28T07:51:09;7.50;;;4.15;;
41635;SDS011;27623;51.966;4.602;2024-02-28T07:53:34;13.00;;;4.18;;
41635;SDS011;27623;51.966;4.602;2024-02-28T07:56:00;6.78;;;2.75;;
41635;SDS011;27623;51.966;4.602;2024-02-28T07:58:25;6.40;;;4.32;;
41635;SDS011;27623;51.966;4.602;2024-02-28T08:00:53;7.35;;;3.08;;
41635;SDS011;27623;51.966;4.602;2024-02-28T08:03:18;6.50;;;2.95;;
41635;SDS011;27623;51.966;4.602;2024-02-28T08:05:44;5.57;;;3.72;;
41635;SDS011;27623;51.966;4.602;2024-02-28T08:08:10;10.57;;;4.25;;
41635;SDS011;27623;51.966;4.602;2024-02-28T08:10:37;5.75;;;3.35;;
41635;SDS011;27623;51.966;4.602;2024-02-28T08:13:05;10.70;;;3.17;;
41635;SDS011;27623;51.966;4.602;2024-02-28T08:15:30;7.65;;;3.53;;
41635;SDS011;27623;51.966;4.602;2024-02-28T08:17:57;7.10;;;3.70;;
41635;SDS011;27623;51.966;4.602;2024-02-28T08:20:23;10.73;;;3.75;;
41635;SDS011;27623;51.966;4.602;2024-02-28T08:22:48;6.72;;;4.32;;
41635;SDS011;27623;51.966;4.602;2024-02-28T08:25:14;7.88;;;3.75;;
41635;SDS011;27623;51.966;4.602;2024-02-28T08:27:39;13.20;;;4.22;;
41635;SDS011;27623;51.966;4.602;2024-02-28T08:30:05;7.88;;;4.40;;
41635;SDS011;27623;51.966;4.602;2024-02-28T08:32:31;6.93;;;3.58;;
41635;SDS011;27623;51.966;4.602;2024-02-28T08:34:57;6.82;;;4.47;;
41635;SDS011;27623;51.966;4.602;2024-02-28T08:37:23;11.60;;;4.30;;
41635;SDS011;27623;51.966;4.602;2024-02-28T08:39:48;11.23;;;5.43;;
41635;SDS011;27623;51.966;4.602;2024-02-28T08:42:14;6.03;;;3.63;;
41635;SDS011;27623;51.966;4.602;2024-02-28T08:44:39;17.42;;;6.53;;
41635;SDS011;27623;51.966;4.602;2024-02-28T08:47:05;8.50;;;3.72;;
41635;SDS011;27623;51.966;4.602;2024-02-28T08:49:32;8.73;;;4.07;;
41635;SDS011;27623;51.966;4.602;2024-02-28T08:51:58;8.60;;;4.80;;
41635;SDS011;27623;51.966;4.602;2024-02-28T08:54:23;7.95;;;5.50;;
41635;SDS011;27623;51.966;4.602;2024-02-28T08:56:50;7.53;;;3.95;;
41635;SDS011;27623;51.966;4.602;2024-02-28T08:59:16;12.65;;;4.85;;
41635;SDS011;27623;51.966;4.602;2024-02-28T09:01:41;19.25;;;4.18;;
41635;SDS011;27623;51.966;4.602;2024-02-28T09:04:07;8.45;;;4.45;;
41635;SDS011;27623;51.966;4.602;2024-02-28T09:06:32;12.38;;;4.45;;
41635;SDS011;27623;51.966;4.602;2024-02-28T09:08:57;9.32;;;5.97;;
41635;SDS011;27623;51.966;4.602;2024-02-28T09:11:23;7.80;;;3.58;;
41635;SDS011;27623;51.966;4.602;2024-02-28T09:13:50;11.63;;;4.72;;
41635;SDS011;27623;51.966;4.602;2024-02-28T09:16:18;11.40;;;4.28;;
41635;SDS011;27623;51.966;4.602;2024-02-28T09:18:46;9.93;;;4.78;;
41635;SDS011;27623;51.966;4.602;2024-02-28T09:21:12;5.50;;;3.45;;
41635;SDS011;27623;51.966;4.602;2024-02-28T09:23:37;9.63;;;4.78;;
41635;SDS011;27623;51.966;4.602;2024-02-28T09:26:05;12.20;;;4.68;;
41635;SDS011;27623;51.966;4.602;2024-02-28T09:28:31;10.50;;;4.22;;
41635;SDS011;27623;51.966;4.602;2024-02-28T09:30:59;8.10;;;4.70;;
41635;SDS011;27623;51.966;4.602;2024-02-28T09:33:24;10.80;;;4.53;;
41635;SDS011;27623;51.966;4.602;2024-02-28T09:35:50;14.85;;;4.95;;
41635;SDS011;27623;51.966;4.602;2024-02-28T09:38:15;6.95;;;3.88;;
41635;SDS011;27623;51.966;4.602;2024-02-28T09:40:41;14.43;;;6.00;;
41635;SDS011;27623;51.966;4.602;2024-02-28T09:43:11;7.28;;;4.43;;
41635;SDS011;27623;51.966;4.602;2024-02-28T09:46:03;8.35;;;4.55;;
41635;SDS011;27623;51.966;4.602;2024-02-28T09:48:29;8.85;;;4.65;;
41635;SDS011;27623;51.966;4.602;2024-02-28T09:50:56;11.50;;;5.50;;
41635;SDS011;27623;51.966;4.602;2024-02-28T09:53:22;13.23;;;4.22;;
41635;SDS011;27623;51.966;4.602;2024-02-28T09:55:48;11.30;;;5.45;;
41635;SDS011;27623;51.966;4.602;2024-02-28T09:58:15;13.93;;;6.85;;
41635;SDS011;27623;51.966;4.602;2024-02-28T10:00:42;13.40;;;5.28;;
41635;SDS011;27623;51.966;4.602;2024-02-28T10:03:10;10.38;;;4.63;;
41635;SDS011;27623;51.966;4.602;2024-02-28T10:05:38;8.18;;;4.65;;
41635;SDS011;27623;51.966;4.602;2024-02-28T10:08:05;7.75;;;4.55;;
41635;SDS011;27623;51.966;4.602;2024-02-28T10:10:31;10.07;;;4.47;;
41635;SDS011;27623;51.966;4.602;2024-02-28T10:12:56;12.82;;;5.30;;
41635;SDS011;27623;51.966;4.602;2024-02-28T10:15:23;7.93;;;5.22;;
41635;SDS011;27623;51.966;4.602;2024-02-28T10:17:51;17.95;;;4.70;;
41635;SDS011;27623;51.966;4.602;2024-02-28T10:20:18;5.82;;;4.22;;
41635;SDS011;27623;51.966;4.602;2024-02-28T10:22:44;8.60;;;4.70;;
41635;SDS011;27623;51.966;4.602;2024-02-28T10:25:10;9.38;;;5.60;;
41635;SDS011;27623;51.966;4.602;2024-02-28T10:27:35;8.98;;;4.43;;
41635;SDS011;27623;51.966;4.602;2024-02-28T10:30:02;7.78;;;5.22;;
41635;SDS011;27623;51.966;4.602;2024-02-28T10:32:34;10.23;;;5.57;;
41635;SDS011;27623;51.966;4.602;2024-02-28T10:35:00;8.20;;;4.53;;
41635;SDS011;27623;51.966;4.602;2024-02-28T10:37:26;11.30;;;5.07;;
41635;SDS011;27623;51.966;4.602;2024-02-28T10:39:56;11.05;;;4.90;;
41635;SDS011;27623;51.966;4.602;2024-02-28T10:42:27;9.50;;;4.70;;
41635;SDS011;27623;51.966;4.602;2024-02-28T10:44:55;8.10;;;3.63;;
41635;SDS011;27623;51.966;4.602;2024-02-28T10:47:23;7.38;;;4.65;;
41635;SDS011;27623;51.966;4.602;2024-02-28T10:49:49;10.05;;;5.35;;
41635;SDS011;27623;51.966;4.602;2024-02-28T10:52:14;9.38;;;4.88;;
41635;SDS011;27623;51.966;4.602;2024-02-28T10:54:44;13.70;;;5.28;;
41635;SDS011;27623;51.966;4.602;2024-02-28T10:57:13;10.00;;;4.57;;
41635;SDS011;27623;51.966;4.602;2024-02-28T10:59:42;10.57;;;5.03;;
41635;SDS011;27623;51.966;4.602;2024-02-28T11:02:09;9.35;;;4.18;;
41635;SDS011;27623;51.966;4.602;2024-02-28T11:04:34;8.63;;;3.60;;
41635;SDS011;27623;51.966;4.602;2024-02-28T11:07:00;8.52;;;4.03;;
41635;SDS011;27623;51.966;4.602;2024-02-28T11:09:29;6.70;;;4.15;;
41635;SDS011;27623;51.966;4.602;2024-02-28T11:11:57;9.57;;;3.65;;
41635;SDS011;27623;51.966;4.602;2024-02-28T11:14:23;8.30;;;5.10;;
41635;SDS011;27623;51.966;4.602;2024-02-28T11:19:27;7.60;;;3.42;;
41635;SDS011;27623;51.966;4.602;2024-02-28T11:21:58;5.88;;;3.00;;
41635;SDS011;27623;51.966;4.602;2024-02-28T11:24:34;9.13;;;4.03;;
41635;SDS011;27623;51.966;4.602;2024-02-28T11:27:02;9.13;;;3.65;;
41635;SDS011;27623;51.966;4.602;2024-02-28T11:29:28;9.60;;;3.55;;
41635;SDS011;27623;51.966;4.602;2024-02-28T11:31:54;9.15;;;3.47;;
41635;SDS011;27623;51.966;4.602;2024-02-28T11:34:19;5.47;;;3.10;;
41635;SDS011;27623;51.966;4.602;2024-02-28T11:36:48;10.25;;;3.95;;
41635;SDS011;27623;51.966;4.602;2024-02-28T11:39:14;22.60;;;5.60;;
41635;SDS011;27623;51.966;4.602;2024-02-28T11:41:42;14.27;;;5.05;;
41635;SDS011;27623;51.966;4.602;2024-02-28T11:44:11;9.45;;;4.25;;
41635;SDS011;27623;51.966;4.602;2024-02-28T11:46:46;10.43;;;4.10;;
41635;SDS011;27623;51.966;4.602;2024-02-28T11:49:15;9.75;;;4.30;;
41635;SDS011;27623;51.966;4.602;2024-02-28T11:51:43;11.05;;;4.97;;
41635;SDS011;27623;51.966;4.602;2024-02-28T11:54:10;20.08;;;4.93;;
41635;SDS011;27623;51.966;4.602;2024-02-28T11:56:36;8.20;;;4.93;;
41635;SDS011;27623;51.966;4.602;2024-02-28T11:59:03;18.80;;;7.57;;
41635;SDS011;27623;51.966;4.602;2024-02-28T12:03:58;11.60;;;4.63;;
41635;SDS011;27623;51.966;4.602;2024-02-28T12:06:23;13.27;;;5.53;;
41635;SDS011;27623;51.966;4.602;2024-02-28T12:08:49;10.43;;;4.30;;
41635;SDS011;27623;51.966;4.602;2024-02-28T12:11:19;10.23;;;5.63;;
41635;SDS011;27623;51.966;4.602;2024-02-28T12:13:44;11.98;;;5.20;;
41635;SDS011;27623;51.966;4.602;2024-02-28T12:16:10;13.65;;;5.20;;
41635;SDS011;27623;51.966;4.602;2024-02-28T12:18:35;15.90;;;5.55;;
41635;SDS011;27623;51.966;4.602;2024-02-28T12:21:01;19.73;;;6.25;;
41635;SDS011;27623;51.966;4.602;2024-02-28T12:23:27;11.30;;;5.28;;
41635;SDS011;27623;51.966;4.602;2024-02-28T12:25:52;17.17;;;6.68;;
41635;SDS011;27623;51.966;4.602;2024-02-28T12:28:18;16.70;;;7.28;;
41635;SDS011;27623;51.966;4.602;2024-02-28T12:30:43;16.75;;;7.82;;
41635;SDS011;27623;51.966;4.602;2024-02-28T12:33:09;16.45;;;6.82;;
41635;SDS011;27623;51.966;4.602;2024-02-28T12:35:36;13.18;;;6.68;;
41635;SDS011;27623;51.966;4.602;2024-02-28T12:38:02;18.98;;;6.50;;
41635;SDS011;27623;51.966;4.602;2024-02-28T12:40:28;20.77;;;7.65;;
41635;SDS011;27623;51.966;4.602;2024-02-28T12:42:54;16.42;;;6.50;;
41635;SDS011;27623;51.966;4.602;2024-02-28T12:45:19;18.92;;;7.43;;
41635;SDS011;27623;51.966;4.602;2024-02-28T12:47:45;18.52;;;7.22;;
41635;SDS011;27623;51.966;4.602;2024-02-28T12:50:10;11.52;;;5.47;;
41635;SDS011;27623;51.966;4.602;2024-02-28T12:52:38;18.50;;;6.82;;
41635;SDS011;27623;51.966;4.602;2024-02-28T12:55:04;14.20;;;6.25;;
41635;SDS011;27623;51.966;4.602;2024-02-28T12:57:30;19.90;;;6.47;;
41635;SDS011;27623;51.966;4.602;2024-02-28T12:59:55;14.52;;;6.57;;
41635;SDS011;27623;51.966;4.602;2024-02-28T13:02:21;15.20;;;8.05;;
41635;SDS011;27623;51.966;4.602;2024-02-28T13:04:47;12.23;;;5.22;;
41635;SDS011;27623;51.966;4.602;2024-02-28T13:07:13;13.43;;;5.75;;
41635;SDS011;27623;51.966;4.602;2024-02-28T13:09:39;13.57;;;6.25;;
41635;SDS011;27623;51.966;4.602;2024-02-28T13:12:04;13.27;;;5.45;;
41635;SDS011;27623;51.966;4.602;2024-02-28T13:14:30;14.15;;;5.88;;
41635;SDS011;27623;51.966;4.602;2024-02-28T13:16:58;13.10;;;6.35;;
41635;SDS011;27623;51.966;4.602;2024-02-28T13:19:24;11.43;;;6.43;;
41635;SDS011;27623;51.966;4.602;2024-02-28T13:21:49;14.15;;;6.88;;
41635;SDS011;27623;51.966;4.602;2024-02-28T13:24:14;16.42;;;6.90;;
41635;SDS011;27623;51.966;4.602;2024-02-28T13:26:41;22.77;;;7.85;;
41635;SDS011;27623;51.966;4.602;2024-02-28T13:29:09;12.93;;;5.90;;
41635;SDS011;27623;51.966;4.602;2024-02-28T13:31:34;15.52;;;6.55;;
41635;SDS011;27623;51.966;4.602;2024-02-28T13:34:00;14.30;;;5.28;;
41635;SDS011;27623;51.966;4.602;2024-02-28T13:36:28;12.93;;;6.65;;
41635;SDS011;27623;51.966;4.602;2024-02-28T13:38:53;16.77;;;5.97;;
41635;SDS011;27623;51.966;4.602;2024-02-28T13:41:19;19.17;;;7.78;;
41635;SDS011;27623;51.966;4.602;2024-02-28T13:43:44;17.40;;;5.65;;
41635;SDS011;27623;51.966;4.602;2024-02-28T13:46:10;13.02;;;5.63;;
41635;SDS011;27623;51.966;4.602;2024-02-28T13:48:39;12.20;;;6.70;;
41635;SDS011;27623;51.966;4.602;2024-02-28T13:51:07;23.48;;;5.65;;
41635;SDS011;27623;51.966;4.602;2024-02-28T13:53:32;17.42;;;7.63;;
41635;SDS011;27623;51.966;4.602;2024-02-28T13:56:00;14.88;;;6.53;;
41635;SDS011;27623;51.966;4.602;2024-02-28T13:58:25;23.77;;;7.47;;
41635;SDS011;27623;51.966;4.602;2024-02-28T14:00:53;11.48;;;5.47;;
41635;SDS011;27623;51.966;4.602;2024-02-28T14:03:18;15.93;;;5.20;;
41635;SDS011;27623;51.966;4.602;2024-02-28T14:05:44;14.43;;;7.00;;
41635;SDS011;27623;51.966;4.602;2024-02-28T14:08:10;13.75;;;6.28;;
41635;SDS011;27623;51.966;4.602;2024-02-28T14:10:37;11.60;;;6.07;;
41635;SDS011;27623;51.966;4.602;2024-02-28T14:13:03;10.88;;;4.72;;
41635;SDS011;27623;51.966;4.602;2024-02-28T14:15:30;11.68;;;5.93;;
41635;SDS011;27623;51.966;4.602;2024-02-28T14:17:56;12.70;;;5.28;;
41635;SDS011;27623;51.966;4.602;2024-02-28T14:20:21;8.52;;;4.95;;
41635;SDS011;27623;51.966;4.602;2024-02-28T14:22:52;21.33;;;5.45;;
41635;SDS011;27623;51.966;4.602;2024-02-28T14:25:17;9.50;;;4.15;;
41635;SDS011;27623;51.966;4.602;2024-02-28T14:27:44;12.18;;;4.07;;
41635;SDS011;27623;51.966;4.602;2024-02-28T14:30:10;6.18;;;3.65;;
41635;SDS011;27623;51.966;4.602;2024-02-28T14:32:37;7.53;;;4.63;;
41635;SDS011;27623;51.966;4.602;2024-02-28T14:35:05;15.73;;;4.53;;
41635;SDS011;27623;51.966;4.602;2024-02-28T14:37:34;9.15;;;3.97;;
41635;SDS011;27623;51.966;4.602;2024-02-28T14:40:01;9.80;;;4.80;;
41635;SDS011;27623;51.966;4.602;2024-02-28T14:42:32;7.55;;;4.13;;
41635;SDS011;27623;51.966;4.602;2024-02-28T14:44:58;8.13;;;3.80;;